Time;durP1;ratioP1;P1;durP2;ratioP2;P2;SDS_P1;SDS_P2;PMS_P1;PMS_P2;Temp;Humidity;BMP_temperature;BMP_pressure;BME280_temperature;BME280_humidity;BME280_pressure;Samples;Min_cycle;Max_cycle;Signal;HPM_P1;HPM_P2
2023/08/26 00:01:04;;;;;;;15.48;8.50;;;;;;;;;;6112174;23;20009;-89
2023/08/26 00:03:30;;;;;;;15.40;9.48;;;;;;;;;;6158935;23;20012;-88
2023/08/26 00:09:40;;;;;;;13.75;8.52;;;25.20;95.20;;;;;;6066238;23;20030;-91
2023/08/26 00:12:17;;;;;;;20.02;10.27;;;25.20;97.10;;;;;;6056239;23;20028;-88
2023/08/26 00:18:51;;;;;;;15.90;9.73;;;25.00;98.70;;;;;;6038214;23;20019;-89
2023/08/26 00:21:43;;;;;;;18.50;10.75;;;25.00;99.90;;;;;;6014443;23;20007;-89
2023/08/26 00:24:18;;;;;;;15.13;9.98;;;24.90;99.90;;;;;;6008354;23;20011;-89
2023/08/26 00:27:10;;;;;;;18.70;9.88;;;24.90;99.90;;;;;;6037657;23;20007;-88
2023/08/26 00:30:07;;;;;;;22.08;10.35;;;24.80;99.90;;;;;;6008562;23;20356;-90
2023/08/26 00:33:31;;;;;;;20.17;11.95;;;24.80;99.90;;;;;;6008992;23;20034;-89
2023/08/26 00:36:53;;;;;;;22.98;10.95;;;24.80;99.90;;;;;;6010565;23;20436;-89
2023/08/26 04:15:19;;;;;;;31.35;15.45;;;22.40;99.90;;;;;;6209618;22;20223;31
2023/08/26 04:18:51;;;;;;;31.05;15.02;;;22.40;99.90;;;;;;6154770;23;20080;-91
2023/08/26 04:39:48;;;;;;;;;;;;;;;;;;;;;
2023/08/26 04:42:59;;;;;;;26.80;15.80;;;22.20;99.90;;;;;;5927222;24;20088;-91
2023/08/26 04:45:52;;;;;;;27.52;15.43;;;22.20;99.90;;;;;;5924179;24;20081;-89
2023/08/26 04:55:35;;;;;;;;;;;;;;;;;;;;;
2023/08/26 04:58:15;;;;;;;31.15;15.55;;;22.50;99.90;;;;;;5850451;24;20101;-89
2023/08/26 09:47:45;;;;;;;17.27;8.45;;;;;;;;;;6292754;22;20546;-85
2023/08/26 09:50:11;;;;;;;20.42;14.20;;;;;;;;;;6282325;22;20014;-87
2023/08/26 09:52:42;;;;;;;20.10;13.35;;;;;;;;;;6281986;22;20054;-85
2023/08/26 09:55:08;;;;;;;19.63;14.88;;;;;;;;;;6309796;22;20007;-87
2023/08/26 09:57:34;;;;;;;15.07;9.43;;;;;;;;;;6281247;22;20026;-89
2023/08/26 10:00:01;;;;;;;16.63;9.30;;;;;;;;;;6282337;22;20029;-87
2023/08/26 10:02:27;;;;;;;21.35;11.07;;;;;;;;;;6282244;22;20026;-88
2023/08/26 10:04:56;;;;;;;12.80;8.63;;;;;;;;;;6281766;22;19999;-88
2023/08/26 10:07:25;;;;;;;19.45;8.27;;;;;;;;;;6280024;22;20010;-88
2023/08/26 10:10:01;;;;;;;14.77;11.00;;;;;;;;;;6281529;22;20003;-88
2023/08/26 10:12:34;;;;;;;38.50;17.55;;;;;;;;;;6281511;22;19999;-86
2023/08/26 10:15:02;;;;;;;13.95;8.90;;;;;;;;;;6280827;22;20079;-85
2023/08/26 10:17:31;;;;;;;22.98;17.13;;;;;;;;;;6281934;22;20410;-88
2023/08/26 10:20:21;;;;;;;16.65;11.73;;;;;;;;;;6282056;22;20106;-84
2023/08/26 10:22:47;;;;;;;34.97;29.70;;;;;;;;;;6130177;23;20002;-86
2023/08/26 10:25:13;;;;;;;15.90;10.80;;;;;;;;;;6154550;23;20010;-84
2023/08/26 10:27:40;;;;;;;17.38;11.88;;;;;;;;;;6129754;23;20005;-86
2023/08/26 10:30:11;;;;;;;16.75;15.05;;;;;;;;;;6129919;23;20009;-88
2023/08/26 10:32:44;;;;;;;20.95;15.80;;;;;;;;;;6130030;23;20005;-86
2023/08/26 10:35:14;;;;;;;12.35;8.38;;;;;;;;;;6129574;23;20341;-85
2023/08/26 10:37:40;;;;;;;11.95;8.18;;;;;;;;;;6129977;23;20337;-86
2023/08/26 10:40:12;;;;;;;15.10;8.88;;;;;;;;;;6129938;23;20377;-86
2023/08/26 10:42:39;;;;;;;9.77;7.70;;;;;;;;;;6129718;23;20006;-84
2023/08/26 10:45:14;;;;;;;14.35;7.18;;;;;;;;;;6129484;23;19998;-82
2023/08/26 10:47:45;;;;;;;46.58;31.95;;;;;;;;;;6129465;23;20045;-89
2023/08/26 10:50:22;;;;;;;43.73;32.57;;;;;;;;;;6129068;23;20001;-86
2023/08/26 10:52:54;;;;;;;35.90;22.00;;;;;;;;;;6129320;23;20012;-86
2023/08/26 10:55:22;;;;;;;83.35;56.95;;;;;;;;;;6129348;23;20005;-86
2023/08/26 10:58:14;;;;;;;122.43;89.57;;;;;;;;;;6129538;23;20089;-88
2023/08/26 11:00:41;;;;;;;80.38;40.95;;;;;;;;;;6263291;22;20007;-87
2023/08/26 11:03:11;;;;;;;68.93;45.80;;;;;;;;;;6280751;22;20015;-85
2023/08/26 11:05:41;;;;;;;84.55;56.17;;;;;;;;;;6281321;22;20087;-85
2023/08/26 11:08:07;;;;;;;16.50;11.73;;;;;;;;;;6281436;22;20072;-86
2023/08/26 11:10:34;;;;;;;43.20;35.90;;;;;;;;;;6280967;22;20077;-83
2023/08/26 11:13:01;;;;;;;41.72;21.80;;;;;;;;;;6281449;22;19999;-83
2023/08/26 11:15:40;;;;;;;44.33;32.80;;;;;;;;;;6281324;22;20026;-83
2023/08/26 11:18:07;;;;;;;28.13;17.23;;;;;;;;;;6280929;22;20009;-87
2023/08/26 11:20:34;;;;;;;12.75;8.88;;;;;;;;;;6281323;22;20421;-83
2023/08/26 11:23:02;;;;;;;14.10;9.43;;;;;;;;;;6308326;22;20003;-84
2023/08/26 11:25:28;;;;;;;21.65;9.18;;;;;;;;;;6280984;22;20088;-86
2023/08/26 11:27:54;;;;;;;123.25;67.10;;;;;;;;;;6281289;22;20038;-84
2023/08/26 11:30:20;;;;;;;371.50;246.15;;;;;;;;;;6280644;22;20003;-87
2023/08/26 11:32:50;;;;;;;228.15;173.13;;;;;;;;;;6281210;22;20343;-85
2023/08/26 11:35:17;;;;;;;350.15;277.48;;;;;;;;;;6281200;22;20004;-84
2023/08/26 11:37:44;;;;;;;124.32;97.85;;;;;;;;;;6281026;22;20007;-86
2023/08/26 11:40:15;;;;;;;214.57;166.77;;;;;;;;;;6281665;22;20087;-85
2023/08/26 11:42:42;;;;;;;112.97;90.13;;;;;;;;;;6308681;22;19996;-84
2023/08/26 11:45:09;;;;;;;123.95;106.65;;;;;;;;;;6307563;22;20005;-83
2023/08/26 11:47:35;;;;;;;67.30;47.70;;;;;;;;;;6280718;22;20015;-83
2023/08/26 11:50:01;;;;;;;80.82;68.82;;;;;;;;;;6281186;22;20292;-82
2023/08/26 11:52:38;;;;;;;37.70;25.73;;;;;;;;;;6308111;22;19996;-82
2023/08/26 11:55:05;;;;;;;36.38;31.83;;;;;;;;;;6280961;22;20419;-82
2023/08/26 11:57:35;;;;;;;22.15;18.90;;;;;;;;;;6281060;22;20403;-84
2023/08/26 12:00:12;;;;;;;33.13;19.25;;;;;;;;;;6280536;22;19995;-84
2023/08/26 12:02:38;;;;;;;23.40;13.25;;;;;;;;;;6308030;22;20002;-84
2023/08/26 12:05:05;;;;;;;17.05;12.52;;;;;;;;;;6307772;22;19995;-85
2023/08/26 12:07:31;;;;;;;11.60;7.90;;;;;;;;;;6280992;22;19999;-84
2023/08/26 12:09:59;;;;;;;11.88;6.55;;;;;;;;;;6307935;22;19995;-85
2023/08/26 12:12:25;;;;;;;9.30;6.80;;;;;;;;;;6307649;22;20003;-84
2023/08/26 12:14:52;;;;;;;13.35;7.63;;;;;;;;;;6280993;22;20007;-84
2023/08/26 12:17:18;;;;;;;13.65;6.47;;;;;;;;;;6280237;22;20017;-83
2023/08/26 12:19:44;;;;;;;12.07;6.75;;;;;;;;;;6307698;22;19995;-82
2023/08/26 12:22:11;;;;;;;14.48;6.68;;;;;;;;;;6280792;22;20007;-82
2023/08/26 12:24:38;;;;;;;16.80;6.68;;;;;;;;;;6308238;22;19999;-82
2023/08/26 12:27:08;;;;;;;15.25;6.68;;;;;;;;;;6279973;22;20017;-85
2023/08/26 12:29:34;;;;;;;381.75;211.55;;;;;;;;;;6280722;22;20562;-82
2023/08/26 12:32:00;;;;;;;1227.82;720.63;;;;;;;;;;6280781;22;20044;-85
2023/08/26 12:34:27;;;;;;;566.58;384.17;;;;;;;;;;6307411;22;20003;-83
2023/08/26 12:36:53;;;;;;;677.72;503.90;;;;;;;;;;6280733;22;20007;-84
2023/08/26 12:39:19;;;;;;;141.43;85.63;;;;;;;;;;6280771;22;20000;-84
2023/08/26 12:41:45;;;;;;;223.43;166.80;;;;;;;;;;6280521;22;19992;-85
2023/08/26 12:44:11;;;;;;;153.93;106.10;;;;;;;;;;6280741;22;20004;-83
2023/08/26 12:46:37;;;;;;;75.65;52.47;;;;;;;;;;6280243;22;20010;-84
2023/08/26 12:49:04;;;;;;;57.47;33.65;;;;;;;;;;6307428;22;20007;-79
2023/08/26 12:51:30;;;;;;;95.03;66.90;;;;;;;;;;6280187;22;19996;-83
2023/08/26 12:53:57;;;;;;;52.38;38.88;;;;;;;;;;6307663;22;20419;-83
2023/08/26 12:56:23;;;;;;;56.53;43.22;;;;;;;;;;6280178;22;19999;-83
2023/08/26 12:58:49;;;;;;;85.80;73.85;;;;;;;;;;6280244;22;20006;-81
2023/08/26 13:01:16;;;;;;;57.28;43.55;;;;;;;;;;6280002;22;20000;-87
2023/08/26 13:03:42;;;;;;;28.67;16.38;;;;;;;;;;6280428;22;20074;-81
2023/08/26 13:06:08;;;;;;;30.60;20.65;;;;;;;;;;6280408;22;20335;-82
2023/08/26 13:08:35;;;;;;;35.78;21.83;;;;;;;;;;6307272;22;20002;-81
2023/08/26 13:11:01;;;;;;;27.13;22.80;;;;;;;;;;6280711;22;20106;-79
2023/08/26 13:13:27;;;;;;;38.78;18.88;;;;;;;;;;6281407;22;20007;-81
2023/08/26 13:15:53;;;;;;;20.35;11.32;;;;;;;;;;6306778;22;20003;-82
2023/08/26 13:18:19;;;;;;;18.88;12.27;;;;;;;;;;6280536;22;19999;-81
2023/08/26 13:20:47;;;;;;;12.45;9.32;;;;;;;;;;6307787;22;19999;-83
2023/08/26 13:23:13;;;;;;;34.10;22.40;;;;;;;;;;6281248;22;20380;-81
2023/08/26 13:25:40;;;;;;;14.07;6.78;;;;;;;;;;6308701;22;20007;-81
2023/08/26 13:28:06;;;;;;;24.77;7.45;;;;;;;;;;6309593;22;19992;-82
2023/08/26 13:30:33;;;;;;;20.55;6.05;;;;;;;;;;6281654;22;20513;-83
2023/08/26 13:32:59;;;;;;;13.90;5.10;;;;;;;;;;6282130;22;20007;-84
2023/08/26 13:35:25;;;;;;;8.50;4.93;;;;;;;;;;6281990;22;20003;-82
2023/08/26 13:37:51;;;;;;;26.52;5.38;;;;;;;;;;6309124;22;20094;-82
2023/08/26 13:40:17;;;;;;;17.00;5.53;;;;;;;;;;6309347;22;20029;-81
2023/08/26 13:42:44;;;;;;;15.18;5.57;;;;;;;;;;6282125;22;20003;-82
2023/08/26 13:45:10;;;;;;;9.23;5.50;;;;;;;;;;6281716;22;19999;-83
2023/08/26 13:47:36;;;;;;;9.07;4.90;;;;;;;;;;6309235;22;20011;-83
2023/08/26 13:50:02;;;;;;;14.77;5.75;;;;;;;;;;6281385;22;19995;-82
2023/08/26 13:52:28;;;;;;;14.70;6.18;;;;;;;;;;6282242;22;20489;-81
2023/08/26 13:54:54;;;;;;;13.75;6.18;;;;;;;;;;6309541;22;20447;-81
2023/08/26 13:57:21;;;;;;;10.57;5.35;;;;;;;;;;6309057;22;20467;-83
2023/08/26 13:59:47;;;;;;;11.02;4.90;;;;;;;;;;6309382;22;19995;-83
2023/08/26 14:02:13;;;;;;;13.20;5.82;;;;;;;;;;6281989;22;20086;-83
2023/08/26 14:04:39;;;;;;;14.35;5.68;;;;;;;;;;6282063;22;20087;-83
2023/08/26 14:07:05;;;;;;;12.27;5.05;;;;;;;;;;6308709;22;20014;-81
2023/08/26 14:09:31;;;;;;;20.60;5.88;;;;;;;;;;6309045;22;20006;-82
2023/08/26 14:11:59;;;;;;;10.48;5.03;;;;;;;;;;6281651;22;19999;-82
2023/08/26 14:14:26;;;;;;;18.00;5.45;;;;;;;;;;6281946;22;20454;-83
2023/08/26 14:16:52;;;;;;;15.07;5.07;;;;;;;;;;6282035;22;20300;-82
2023/08/26 14:19:18;;;;;;;24.23;5.63;;;;;;;;;;6308885;22;20164;-82
2023/08/26 14:21:45;;;;;;;18.30;5.80;;;;;;;;;;6309002;22;20074;-84
2023/08/26 14:24:12;;;;;;;16.50;5.00;;;;;;;;;;6308872;22;19996;-85
2023/08/26 14:26:38;;;;;;;11.68;5.28;;;;;;;;;;6281257;22;20008;-84
2023/08/26 14:29:04;;;;;;;15.98;5.93;;;;;;;;;;6309105;22;20000;-84
2023/08/26 14:31:30;;;;;;;13.68;4.53;;;;;;;;;;6281859;22;20419;-83
2023/08/26 14:33:57;;;;;;;18.67;6.57;;;;;;;;;;6281072;22;20031;-81
2023/08/26 14:36:24;;;;;;;19.45;5.35;;;;;;;;;;6281763;22;20411;-81
2023/08/26 14:38:51;;;;;;;19.27;4.72;;;;;;;;;;6281783;22;20026;-82
2023/08/26 14:41:17;;;;;;;21.98;5.18;;;;;;;;;;6308366;22;20000;-82
2023/08/26 14:43:43;;;;;;;30.83;5.47;;;;;;;;;;6309082;22;19995;-84
2023/08/26 14:46:09;;;;;;;16.80;5.30;;;;;;;;;;6308588;22;20007;-83
2023/08/26 14:48:36;;;;;;;18.60;5.43;;;;;;;;;;6281061;22;20012;-81
2023/08/26 14:51:02;;;;;;;19.17;5.35;;;;;;;;;;6308611;22;19996;-82
2023/08/26 14:53:28;;;;;;;27.75;5.80;;;;;;;;;;6281338;22;20010;-82
2023/08/26 14:55:58;;;;;;;20.95;4.40;;;;;;;;;;6281720;22;20007;-81
2023/08/26 14:58:24;;;;;;;20.95;4.70;;;;;;;;;;6286083;22;20003;-83
2023/08/26 15:00:54;;;;;;;17.65;4.90;;;;;;;;;;6281226;22;20421;-84
2023/08/26 15:03:20;;;;;;;21.08;6.97;;;;;;;;;;6281366;22;20003;-81
2023/08/26 15:06:03;;;;;;;19.80;6.10;;;;;;;;;;6308791;22;20366;-89
2023/08/26 15:08:30;;;;;;;13.50;4.10;;;;;;;;;;6308344;22;19999;-83
2023/08/26 15:10:56;;;;;;;34.95;4.15;;;;;;;;;;6280861;22;20004;-84
2023/08/26 15:13:22;;;;;;;16.52;3.58;;;;;;;;;;6281225;22;20084;-81
2023/08/26 15:15:49;;;;;;;13.40;4.85;;;;;;;;;;6280069;22;20026;-82
2023/08/26 15:18:16;;;;;;;26.15;4.75;;;;;;;;;;6308228;22;20070;-81
2023/08/26 15:20:46;;;;;;;19.35;3.97;;;;;;;;;;6281048;22;20007;-83
2023/08/26 15:23:14;;;;;;;13.50;4.53;;;;;;;;;;6280101;22;19999;-83
2023/08/26 15:25:40;;;;;;;17.52;5.18;;;;;;;;;;6280025;22;20094;-84
2023/08/26 15:28:06;;;;;;;13.93;4.20;;;;;;;;;;6307256;22;19995;-82
2023/08/26 15:30:33;;;;;;;13.77;4.07;;;;;;;;;;6279123;22;20003;-84
2023/08/26 15:33:00;;;;;;;15.18;4.50;;;;;;;;;;6307277;22;19991;-83
2023/08/26 15:35:27;;;;;;;16.63;4.82;;;;;;;;;;6305404;22;20045;-82
2023/08/26 15:37:53;;;;;;;14.93;3.90;;;;;;;;;;6280202;22;20078;-84
2023/08/26 15:40:19;;;;;;;15.23;3.95;;;;;;;;;;6307795;22;19995;-85
2023/08/26 15:42:46;;;;;;;11.38;4.47;;;;;;;;;;6307618;22;20026;-83
2023/08/26 15:45:13;;;;;;;16.67;4.47;;;;;;;;;;6280508;22;20433;-84
2023/08/26 15:47:39;;;;;;;13.30;4.57;;;;;;;;;;6280459;22;20067;-82
2023/08/26 15:50:06;;;;;;;17.38;5.40;;;;;;;;;;6307505;22;20005;-86
2023/08/26 15:52:32;;;;;;;11.65;3.70;;;;;;;;;;6281119;22;20003;-84
2023/08/26 15:54:59;;;;;;;11.90;4.80;;;;;;;;;;6281175;22;20026;-85
2023/08/26 15:57:25;;;;;;;13.20;5.22;;;;;;;;;;6279521;22;20345;-84
2023/08/26 15:59:51;;;;;;;13.35;4.57;;;;;;;;;;6280616;22;19999;-83
2023/08/26 16:02:17;;;;;;;10.18;4.05;;;;;;;;;;6280469;22;19995;-81
2023/08/26 16:04:44;;;;;;;12.40;3.90;;;;;;;;;;6307695;22;19995;-83
2023/08/26 16:07:11;;;;;;;17.65;4.07;;;;;;;;;;6280467;22;20007;-85
2023/08/26 16:09:37;;;;;;;18.38;4.75;;;;;;;;;;6280638;22;20074;-84
2023/08/26 16:12:03;;;;;;;11.07;4.22;;;;;;;;;;6280182;22;20034;-85
2023/08/26 16:14:29;;;;;;;18.67;4.50;;;;;;;;;;6307613;22;19998;-83
2023/08/26 16:16:55;;;;;;;12.88;4.43;;;;;;;;;;6280552;22;20003;-83
2023/08/26 16:19:22;;;;;;;17.08;4.80;;;;;;;;;;6280559;22;20081;-84
2023/08/26 16:21:48;;;;;;;11.02;4.45;;;;;;;;;;6280758;22;20030;-82
2023/08/26 16:24:14;;;;;;;11.23;4.32;;;;;;;;;;6280206;22;20430;-85
2023/08/26 16:26:41;;;;;;;14.38;4.80;;;;;;;;;;6307384;22;20292;-84
2023/08/26 16:29:07;;;;;;;16.35;5.13;;;;;;;;;;6280521;22;20076;-85
2023/08/26 16:31:33;;;;;;;16.40;5.00;;;;;;;;;;6280262;22;20052;-86
2023/08/26 16:34:00;;;;;;;8.15;5.13;;;;;;;;;;6280560;22;20006;-83
2023/08/26 16:36:26;;;;;;;13.25;5.60;;;;;;;;;;6307998;22;20135;-85
2023/08/26 16:38:52;;;;;;;11.73;5.22;;;;;;;;;;6280291;22;20086;-85
2023/08/26 16:41:18;;;;;;;12.27;5.15;;;;;;;;;;6280655;22;20082;-83
2023/08/26 16:43:44;;;;;;;12.80;5.88;;;;;;;;;;6307680;22;20380;-85
2023/08/26 16:46:10;;;;;;;12.18;5.30;;;;;;;;;;6306935;22;20003;-84
2023/08/26 16:48:37;;;;;;;11.68;5.20;;;;;;;;;;6281968;22;20305;-83
2023/08/26 16:51:03;;;;;;;10.52;4.80;;;;;;;;;;6309905;22;20288;-85
2023/08/26 16:53:29;;;;;;;14.93;5.38;;;;;;;;;;6282147;22;20003;-83
2023/08/26 16:55:55;;;;;;;8.38;4.80;;;;;;;;;;6309981;22;20051;-84
2023/08/26 16:58:22;;;;;;;14.38;4.53;;;;;;;;;;6309920;22;20000;-84
2023/08/26 17:00:48;;;;;;;13.05;5.25;;;;;;;;;;6309191;22;20002;-83
2023/08/26 17:03:14;;;;;;;17.58;5.93;;;;;;;;;;6282520;22;20014;-85
2023/08/26 17:05:49;;;;;;;22.70;5.00;;;;;;;;;;6309654;22;20014;-90
2023/08/26 17:08:16;;;;;;;11.85;5.28;;;;;;;;;;6281660;22;20006;-85
2023/08/26 17:10:52;;;;;;;19.00;5.82;;;;;;;;;;6214876;23;20004;-87
2023/08/26 17:13:18;;;;;;;11.32;5.30;;;;;;;;;;6214517;23;20124;-88
2023/08/26 17:15:44;;;;;;;19.58;6.28;;;;;;;;;;6214839;23;20051;-84
2023/08/26 17:18:13;;;;;;;18.27;5.68;;;;;;;;;;6214860;23;20087;-88
2023/08/26 17:20:40;;;;;;;17.48;6.32;;;;;;;;;;6214465;23;20468;-86
2023/08/26 17:23:06;;;;;;;14.00;6.32;;;;;;;;;;6214515;23;20474;-85
2023/08/26 17:25:32;;;;;;;14.18;5.10;;;;;;;;;;6214183;23;20015;-85
2023/08/26 17:27:58;;;;;;;19.80;6.28;;;;;;;;;;6213923;23;20005;-85
2023/08/26 17:30:25;;;;;;;16.73;6.43;;;;;;;;;;6214465;23;19997;-86
2023/08/26 17:32:51;;;;;;;17.13;7.05;;;;;;;;;;6214692;23;20043;-85
2023/08/26 17:35:17;;;;;;;17.10;5.85;;;;;;;;;;6214258;23;20413;-87
2023/08/26 17:37:43;;;;;;;15.07;7.13;;;;;;;;;;6214615;23;20004;-85
2023/08/26 17:40:09;;;;;;;14.13;5.75;;;;;;;;;;6214586;23;20005;-86
2023/08/26 17:42:37;;;;;;;13.20;6.03;;;;;;;;;;6274339;22;20078;-86
2023/08/26 17:45:05;;;;;;;16.17;5.90;;;;;;;;;;6256894;22;19999;-85
2023/08/26 17:47:31;;;;;;;16.88;6.32;;;;;;;;;;6281821;22;20011;-85
2023/08/26 17:49:57;;;;;;;11.18;6.32;;;;;;;;;;6282118;22;20000;-84
2023/08/26 17:52:23;;;;;;;16.45;6.63;;;;;;;;;;6282129;22;19995;-87
2023/08/26 17:54:52;;;;;;;16.85;6.75;;;;;;;;;;6282102;22;20057;-86
2023/08/26 17:57:18;;;;;;;22.73;6.70;;;;;;;;;;6281601;22;20000;-88
2023/08/26 17:59:44;;;;;;;11.45;5.95;;;;;;;;;;6281856;22;20450;-86
2023/08/26 18:02:11;;;;;;;17.42;7.25;;;;;;;;;;6281658;22;20053;-84
2023/08/26 18:04:37;;;;;;;15.05;7.10;;;;;;;;;;6281868;22;20082;-83
2023/08/26 18:07:03;;;;;;;24.17;7.72;;;;;;;;;;6281246;22;19999;-82
2023/08/26 18:09:30;;;;;;;25.38;7.07;;;;;;;;;;6281297;22;20035;-84
2023/08/26 18:11:56;;;;;;;16.35;7.13;;;;;;;;;;6281891;22;20430;-83
2023/08/26 18:14:22;;;;;;;15.82;6.53;;;;;;;;;;6281897;22;19995;-82
2023/08/26 18:16:48;;;;;;;20.77;6.78;;;;;;;;;;6308470;22;19999;-83
2023/08/26 18:19:14;;;;;;;12.30;6.60;;;;;;;;;;6256261;22;20027;-83
2023/08/26 18:21:40;;;;;;;13.65;6.78;;;;;;;;;;6281733;22;20033;-85
2023/08/26 18:24:07;;;;;;;8.68;6.45;;;;;;;;;;6281356;22;19999;-85
2023/08/26 18:26:34;;;;;;;11.68;6.13;;;;;;;;;;6281567;22;20014;-86
2023/08/26 18:29:00;;;;;;;13.80;7.03;;;;;;;;;;6308438;22;20041;-84
2023/08/26 18:31:26;;;;;;;21.38;7.95;;;;;;;;;;6281389;22;19999;-84
2023/08/26 18:33:52;;;;;;;17.10;8.32;;;;;;;;;;6281663;22;20415;-85
2023/08/26 18:36:18;;;;;;;19.50;8.05;;;;;;;;;;6281632;22;20007;-84
2023/08/26 18:38:44;;;;;;;16.00;7.80;;;;;;;;;;6308356;22;20003;-84
2023/08/26 18:41:10;;;;;;;14.07;7.47;;;;;;;;;;6281695;22;20367;-85
2023/08/26 18:43:37;;;;;;;26.73;8.07;;;;;;;;;;6281622;22;20006;-86
2023/08/26 18:46:03;;;;;;;21.45;8.75;;;;;;;;;;6281038;22;20008;-85
2023/08/26 18:48:29;;;;;;;16.98;7.55;;;;;;;;;;6280983;22;20019;-84
2023/08/26 18:50:59;;;;;;;13.27;7.68;;;;;;;;;;6281745;22;20007;-86
2023/08/26 18:53:25;;;;;;;21.00;7.68;;;;;;;;;;6281190;22;20082;-86
2023/08/26 18:55:52;;;;;;;20.90;6.72;;;;;;;;;;6281472;22;19999;-86
2023/08/26 18:58:18;;;;;;;19.77;8.35;;;;;;;;;;6281064;22;20003;-87
2023/08/26 19:00:48;;;;;;;13.68;5.93;;;;;;;;;;6281409;22;20470;-86
2023/08/26 19:03:14;;;;;;;26.25;6.50;;;;;;;;;;6308271;22;20312;-87
2023/08/26 19:05:42;;;;;;;15.88;6.47;;;;;;;;;;6280855;22;20011;-87
2023/08/26 19:08:08;;;;;;;12.73;6.25;;;;;;;;;;6281313;22;20086;-85
2023/08/26 19:10:35;;;;;;;16.90;5.88;;;;;;;;;;6307944;22;20326;-85
2023/08/26 19:13:03;;;;;;;16.33;6.43;;;;;;;;;;6280997;22;19999;-85
2023/08/26 19:15:29;;;;;;;23.20;6.00;;;;;;;;;;6280749;22;20357;-85
2023/08/26 19:17:55;;;;;;;11.05;5.60;;;;;;;;;;6281229;22;20053;-86
2023/08/26 19:20:21;;;;;;;10.65;5.40;;;;;;;;;;6280844;22;20437;-85
2023/08/26 19:22:47;;;;;;;15.45;5.93;;;;;;;;;;6281266;22;19995;-85
2023/08/26 19:25:14;;;;;;;17.80;6.03;;;;;;;;;;6281001;22;20353;-88
2023/08/26 19:27:40;;;;;;;18.50;5.80;;;;;;;;;;6280853;22;20074;-84
2023/08/26 19:30:06;;;;;;;18.10;6.55;;;;;;;;;;6281157;22;20386;-85
2023/08/26 19:32:33;;;;;;;15.32;6.50;;;;;;;;;;6281305;22;20369;-84
2023/08/26 19:34:59;;;;;;;16.38;7.43;;;;;;;;;;6280766;22;20010;-83
2023/08/26 19:37:25;;;;;;;17.15;6.78;;;;;;;;;;6281163;22;20007;-83
2023/08/26 19:39:51;;;;;;;10.52;5.72;;;;;;;;;;6281015;22;20007;-84
2023/08/26 19:42:17;;;;;;;13.25;5.78;;;;;;;;;;6280599;22;19999;-82
2023/08/26 19:44:43;;;;;;;13.73;5.57;;;;;;;;;;6307883;22;20300;-83
2023/08/26 19:47:09;;;;;;;19.52;5.90;;;;;;;;;;6280248;22;20015;-85
2023/08/26 19:49:36;;;;;;;21.15;7.53;;;;;;;;;;6281037;22;20056;-84
2023/08/26 19:52:03;;;;;;;17.42;6.22;;;;;;;;;;6280883;22;20074;-84
2023/08/26 19:54:29;;;;;;;12.05;6.03;;;;;;;;;;6280820;22;20319;-85
2023/08/26 19:56:55;;;;;;;15.68;5.68;;;;;;;;;;6281000;22;20015;-87
2023/08/26 19:59:21;;;;;;;13.43;5.57;;;;;;;;;;6280958;22;20003;-86
2023/08/26 20:01:47;;;;;;;16.92;6.38;;;;;;;;;;6307882;22;20074;-84
2023/08/26 20:04:14;;;;;;;14.98;5.65;;;;;;;;;;6308172;22;19995;-86
2023/08/26 20:06:40;;;;;;;14.68;6.40;;;;;;;;;;6280744;22;20010;-85
2023/08/26 20:09:07;;;;;;;25.48;6.55;;;;;;;;;;6280602;22;19999;-83
2023/08/26 20:11:33;;;;;;;11.50;5.85;;;;;;;;;;6280746;22;19999;-86
2023/08/26 20:13:59;;;;;;;18.40;6.50;;;;;;;;;;6308096;22;20402;-84
2023/08/26 20:16:25;;;;;;;18.60;6.43;;;;;;;;;;6307341;22;20362;-84
2023/08/26 20:18:51;;;;;;;19.20;7.07;;;;;;;;;;6308307;22;20049;-84
2023/08/26 20:21:17;;;;;;;11.68;6.35;;;;;;;;;;6280567;22;20006;-87
2023/08/26 20:23:44;;;;;;;19.17;7.10;;;;;;;;;;6307579;22;20006;-86
2023/08/26 20:26:11;;;;;;;18.83;7.22;;;;;;;;;;6280493;22;20057;-86
2023/08/26 20:28:37;;;;;;;14.38;6.70;;;;;;;;;;6280921;22;20022;-86
2023/08/26 20:31:04;;;;;;;15.45;7.38;;;;;;;;;;6307686;22;20082;-87
2023/08/26 20:33:30;;;;;;;16.15;6.85;;;;;;;;;;6281003;22;20003;-84
2023/08/26 20:35:56;;;;;;;14.30;6.85;;;;;;;;;;6280724;22;19999;-85
2023/08/26 20:38:23;;;;;;;11.82;6.22;;;;;;;;;;6307704;22;19999;-86
2023/08/26 20:40:50;;;;;;;13.90;6.93;;;;;;;;;;6280708;22;20016;-87
2023/08/26 20:43:18;;;;;;;12.57;6.47;;;;;;;;;;6280235;22;20000;-85
2023/08/26 20:45:44;;;;;;;14.45;6.68;;;;;;;;;;6280604;22;20053;-85
2023/08/26 20:48:11;;;;;;;13.63;6.43;;;;;;;;;;6280258;22;20014;-86
2023/08/26 20:50:37;;;;;;;17.55;7.00;;;;;;;;;;6280307;22;19999;-86
2023/08/26 20:53:05;;;;;;;12.93;6.00;;;;;;;;;;6280559;22;20082;-87
2023/08/26 20:55:31;;;;;;;18.85;6.78;;;;;;;;;;6280760;22;19999;-88
2023/08/26 20:57:59;;;;;;;12.70;6.95;;;;;;;;;;6280350;22;20003;-85
2023/08/26 21:00:25;;;;;;;14.55;7.03;;;;;;;;;;6280477;22;20082;-84
2023/08/26 21:02:51;;;;;;;18.67;6.53;;;;;;;;;;6280593;22;20003;-86
2023/08/26 21:05:18;;;;;;;14.55;7.05;;;;;;;;;;6280111;22;20006;-86
2023/08/26 21:07:44;;;;;;;15.20;7.63;;;;;;;;;;6280537;22;20316;-85
2023/08/26 21:10:10;;;;;;;11.68;6.68;;;;;;;;;;6280620;22;20094;-84
2023/08/26 21:12:36;;;;;;;14.60;7.18;;;;;;;;;;6280186;22;20003;-85
2023/08/26 21:15:03;;;;;;;13.85;7.53;;;;;;;;;;6280215;22;19999;-86
2023/08/26 21:17:29;;;;;;;18.63;7.22;;;;;;;;;;6280454;22;20085;-86
2023/08/26 21:19:55;;;;;;;15.43;7.20;;;;;;;;;;6280131;22;20082;-84
2023/08/26 21:22:22;;;;;;;16.23;6.75;;;;;;;;;;6280313;22;20002;-87
2023/08/26 21:24:49;;;;;;;11.13;7.20;;;;;;;;;;6307691;22;20356;-84
2023/08/26 21:27:15;;;;;;;23.25;8.15;;;;;;;;;;6280105;22;20411;-86
2023/08/26 21:29:42;;;;;;;14.13;7.03;;;;;;;;;;6280566;22;20419;-87
2023/08/26 21:32:08;;;;;;;13.98;7.00;;;;;;;;;;6307654;22;19999;-85
2023/08/26 21:34:34;;;;;;;16.65;7.25;;;;;;;;;;6282550;22;19999;-86
2023/08/26 21:37:00;;;;;;;16.40;6.82;;;;;;;;;;6282666;22;20140;-86
2023/08/26 21:39:27;;;;;;;13.93;7.22;;;;;;;;;;6282189;22;20082;-88
2023/08/26 21:41:53;;;;;;;13.77;6.90;;;;;;;;;;6282577;22;20022;-84
2023/08/26 21:44:21;;;;;;;20.50;6.90;;;;;;;;;;6282530;22;20090;-86
2023/08/26 21:46:47;;;;;;;17.60;7.30;;;;;;;;;;6281502;22;20377;-87
2023/08/26 21:49:13;;;;;;;17.88;7.05;;;;;;;;;;6282425;22;20012;-87
2023/08/26 21:51:39;;;;;;;17.80;7.13;;;;;;;;;;6282329;22;20003;-85
2023/08/26 21:54:06;;;;;;;14.45;7.43;;;;;;;;;;6282066;22;20083;-87
2023/08/26 21:56:32;;;;;;;14.88;7.80;;;;;;;;;;6282817;22;20073;-86
2023/08/26 21:58:58;;;;;;;15.73;7.88;;;;;;;;;;6282429;22;20408;-86
2023/08/26 22:01:24;;;;;;;13.32;7.78;;;;;;;;;;6281755;22;20006;-87
2023/08/26 22:03:50;;;;;;;18.17;8.38;;;;;;;;;;6282577;22;20030;-87
2023/08/26 22:06:16;;;;;;;19.13;7.90;;;;;;;;;;6282131;22;20102;-87
2023/08/26 22:08:43;;;;;;;13.68;8.10;;;;;;;;;;6281980;22;20082;-88
2023/08/26 22:11:09;;;;;;;12.50;6.78;;;;;;;;;;6282211;22;20010;-86
2023/08/26 22:13:36;;;;;;;17.20;7.38;;;;;;;;;;6281815;22;20313;-86
2023/08/26 22:16:02;;;;;;;12.20;7.45;;;;;;;;;;6281759;22;20003;-87
2023/08/26 22:18:28;;;;;;;17.50;7.32;;;;;;;;;;6282320;22;20388;-90
2023/08/26 22:20:54;;;;;;;16.27;7.20;;;;;;;;;;6282597;22;20003;-87
2023/08/26 22:23:23;;;;;;;16.58;7.45;;;;;;;;;;6281913;22;20035;-87
2023/08/26 22:25:49;;;;;;;15.18;6.63;;;;;;;;;;6281904;22;20018;-87
2023/08/26 22:28:15;;;;;;;12.63;7.60;;;;;;;;;;6281774;22;20085;-88
2023/08/26 22:30:42;;;;;;;23.27;7.07;;;;;;;;;;6282260;22;20308;-88
2023/08/26 22:33:08;;;;;;;16.40;7.18;;;;;;;;;;6282106;22;20010;-88
2023/08/26 22:35:34;;;;;;;13.57;6.90;;;;;;;;;;6282159;22;20000;-86
2023/08/26 22:38:01;;;;;;;13.55;7.28;;;;;;;;;;6281901;22;20029;-88
2023/08/26 22:40:27;;;;;;;15.40;7.10;;;;;;;;;;6282106;22;20002;-87
2023/08/26 22:42:53;;;;;;;14.02;7.28;;;;;;;;;;6281679;22;20094;-87
2023/08/26 22:45:19;;;;;;;14.10;7.45;;;;;;;;;;6281701;22;20467;-87
2023/08/26 22:47:45;;;;;;;14.90;7.32;;;;;;;;;;6281872;22;20410;-87
2023/08/26 22:50:11;;;;;;;17.55;7.15;;;26.10;71.50;;;;;;6281730;22;20052;-91
2023/08/26 22:52:37;;;;;;;14.48;7.57;;;26.00;72.20;;;;;;6256457;22;20078;-87
2023/08/26 22:55:05;;;;;;;15.43;8.02;;;26.00;73.20;;;;;;6282026;22;20437;-89
2023/08/26 22:57:31;;;;;;;22.33;8.50;;;25.90;73.90;;;;;;6281628;22;20103;-90
2023/08/26 22:59:57;;;;;;;17.52;7.90;;;25.80;75.00;;;;;;6281856;22;20419;-88
2023/08/26 23:02:24;;;;;;;20.70;7.90;;;25.80;75.90;;;;;;6281831;22;20086;-88
2023/08/26 23:04:50;;;;;;;17.10;8.23;;;25.80;77.40;;;;;;6281406;22;19999;-88
2023/08/26 23:07:16;;;;;;;17.60;8.02;;;25.80;78.90;;;;;;6281604;22;20033;-87
2023/08/26 23:09:42;;;;;;;15.45;8.38;;;25.80;79.70;;;;;;6281657;22;19995;-87
2023/08/26 23:12:08;;;;;;;18.50;8.60;;;25.80;80.80;;;;;;6281223;22;20044;-87
2023/08/26 23:14:36;;;;;;;18.77;8.20;;;25.80;81.80;;;;;;6281548;22;20003;-87
2023/08/26 23:17:02;;;;;;;16.90;8.93;;;25.80;82.80;;;;;;6281621;22;20502;-88
2023/08/26 23:19:28;;;;;;;19.33;8.88;;;25.70;84.30;;;;;;6281451;22;20034;-89